sensor_id;sensor_type;location;lat;lon;timestamp;P1;durP1;ratioP1;P2;durP2;ratioP2
323;SDS011;149;51.094;17.002;2023-03-01T00:01:14;45.28;;;29.20;;
323;SDS011;149;51.094;17.002;2023-03-01T00:03:48;59.67;;;34.53;;
323;SDS011;149;51.094;17.002;2023-03-01T00:06:16;48.25;;;31.00;;
323;SDS011;149;51.094;17.002;2023-03-01T00:08:44;57.15;;;34.00;;
323;SDS011;149;51.094;17.002;2023-03-01T00:11:13;61.78;;;38.17;;
323;SDS011;149;51.094;17.002;2023-03-01T00:13:44;69.40;;;40.30;;
323;SDS011;149;51.094;17.002;2023-03-01T00:16:13;58.90;;;39.03;;
323;SDS011;149;51.094;17.002;2023-03-01T00:18:48;66.68;;;39.17;;
323;SDS011;149;51.094;17.002;2023-03-01T00:21:19;67.63;;;39.15;;
323;SDS011;149;51.094;17.002;2023-03-01T00:23:48;56.38;;;36.20;;
323;SDS011;149;51.094;17.002;2023-03-01T00:26:16;56.47;;;36.17;;
323;SDS011;149;51.094;17.002;2023-03-01T00:28:44;58.75;;;39.00;;
323;SDS011;149;51.094;17.002;2023-03-01T00:31:12;57.55;;;36.28;;
323;SDS011;149;51.094;17.002;2023-03-01T00:33:41;59.05;;;40.05;;
323;SDS011;149;51.094;17.002;2023-03-01T00:36:09;72.68;;;40.50;;
323;SDS011;149;51.094;17.002;2023-03-01T00:38:39;71.35;;;40.83;;
323;SDS011;149;51.094;17.002;2023-03-01T00:41:08;68.80;;;43.45;;
323;SDS011;149;51.094;17.002;2023-03-01T00:43:38;65.80;;;40.08;;
323;SDS011;149;51.094;17.002;2023-03-01T00:46:06;69.35;;;42.53;;
323;SDS011;149;51.094;17.002;2023-03-01T00:48:36;73.28;;;45.03;;
323;SDS011;149;51.094;17.002;2023-03-01T00:51:14;66.53;;;39.95;;
323;SDS011;149;51.094;17.002;2023-03-01T00:53:44;77.25;;;44.20;;
323;SDS011;149;51.094;17.002;2023-03-01T00:56:13;64.70;;;41.63;;
323;SDS011;149;51.094;17.002;2023-03-01T00:58:41;79.25;;;43.55;;
323;SDS011;149;51.094;17.002;2023-03-01T01:01:15;73.72;;;45.58;;
323;SDS011;149;51.094;17.002;2023-03-01T01:03:49;78.60;;;45.17;;
323;SDS011;149;51.094;17.002;2023-03-01T01:06:21;72.22;;;43.55;;
323;SDS011;149;51.094;17.002;2023-03-01T01:08:50;77.78;;;44.38;;
323;SDS011;149;51.094;17.002;2023-03-01T01:11:19;68.18;;;42.75;;
323;SDS011;149;51.094;17.002;2023-03-01T01:13:47;75.28;;;45.25;;
323;SDS011;149;51.094;17.002;2023-03-01T01:16:16;63.10;;;43.22;;
323;SDS011;149;51.094;17.002;2023-03-01T01:18:45;67.60;;;43.78;;
323;SDS011;149;51.094;17.002;2023-03-01T01:21:13;91.47;;;48.75;;
323;SDS011;149;51.094;17.002;2023-03-01T01:23:43;72.03;;;45.00;;
323;SDS011;149;51.094;17.002;2023-03-01T01:26:21;71.70;;;43.42;;
323;SDS011;149;51.094;17.002;2023-03-01T01:28:57;77.50;;;46.28;;
323;SDS011;149;51.094;17.002;2023-03-01T01:31:25;70.32;;;42.63;;
323;SDS011;149;51.094;17.002;2023-03-01T01:33:53;79.22;;;45.60;;
323;SDS011;149;51.094;17.002;2023-03-01T01:36:21;83.53;;;46.20;;
323;SDS011;149;51.094;17.002;2023-03-01T01:38:50;77.15;;;44.83;;
323;SDS011;149;51.094;17.002;2023-03-01T01:41:18;83.38;;;45.20;;
323;SDS011;149;51.094;17.002;2023-03-01T01:44:08;69.05;;;45.45;;
323;SDS011;149;51.094;17.002;2023-03-01T01:46:41;69.57;;;43.50;;
323;SDS011;149;51.094;17.002;2023-03-01T01:49:17;76.32;;;43.35;;
323;SDS011;149;51.094;17.002;2023-03-01T01:51:53;79.13;;;46.83;;
323;SDS011;149;51.094;17.002;2023-03-01T01:54:26;77.63;;;44.80;;
323;SDS011;149;51.094;17.002;2023-03-01T01:57:02;78.28;;;46.03;;
323;SDS011;149;51.094;17.002;2023-03-01T01:59:33;83.28;;;46.58;;
323;SDS011;149;51.094;17.002;2023-03-01T02:02:01;79.45;;;45.72;;
323;SDS011;149;51.094;17.002;2023-03-01T02:04:31;77.78;;;47.95;;
323;SDS011;149;51.094;17.002;2023-03-01T02:07:19;75.60;;;45.50;;
323;SDS011;149;51.094;17.002;2023-03-01T02:09:50;73.22;;;42.97;;
323;SDS011;149;51.094;17.002;2023-03-01T02:12:20;73.63;;;44.08;;
323;SDS011;149;51.094;17.002;2023-03-01T02:14:50;81.72;;;47.00;;
323;SDS011;149;51.094;17.002;2023-03-01T02:17:18;90.57;;;48.40;;
323;SDS011;149;51.094;17.002;2023-03-01T02:19:56;78.97;;;46.88;;
323;SDS011;149;51.094;17.002;2023-03-01T02:22:27;70.68;;;44.85;;
323;SDS011;149;51.094;17.002;2023-03-01T02:25:03;88.32;;;50.40;;
323;SDS011;149;51.094;17.002;2023-03-01T02:27:49;86.50;;;46.83;;
323;SDS011;149;51.094;17.002;2023-03-01T02:30:40;79.85;;;45.03;;
323;SDS011;149;51.094;17.002;2023-03-01T02:33:28;87.38;;;46.20;;
323;SDS011;149;51.094;17.002;2023-03-01T02:36:14;78.13;;;48.40;;
323;SDS011;149;51.094;17.002;2023-03-01T02:38:43;85.15;;;47.25;;
323;SDS011;149;51.094;17.002;2023-03-01T02:41:12;83.30;;;52.35;;
323;SDS011;149;51.094;17.002;2023-03-01T02:43:42;85.25;;;50.25;;
323;SDS011;149;51.094;17.002;2023-03-01T02:46:14;90.95;;;52.28;;
323;SDS011;149;51.094;17.002;2023-03-01T02:48:47;92.50;;;52.70;;
323;SDS011;149;51.094;17.002;2023-03-01T02:56:47;89.88;;;47.97;;
323;SDS011;149;51.094;17.002;2023-03-01T02:59:16;73.30;;;47.42;;
323;SDS011;149;51.094;17.002;2023-03-01T03:01:46;84.30;;;50.13;;
323;SDS011;149;51.094;17.002;2023-03-01T03:04:17;85.03;;;48.92;;
323;SDS011;149;51.094;17.002;2023-03-01T03:06:49;88.40;;;48.38;;
323;SDS011;149;51.094;17.002;2023-03-01T03:09:17;91.57;;;51.10;;
323;SDS011;149;51.094;17.002;2023-03-01T03:11:45;94.43;;;51.60;;
323;SDS011;149;51.094;17.002;2023-03-01T03:14:13;78.45;;;48.00;;
323;SDS011;149;51.094;17.002;2023-03-01T03:16:42;95.05;;;51.17;;
323;SDS011;149;51.094;17.002;2023-03-01T03:19:10;83.25;;;49.90;;
323;SDS011;149;51.094;17.002;2023-03-01T03:21:38;80.70;;;48.75;;
323;SDS011;149;51.094;17.002;2023-03-01T03:24:05;84.07;;;48.47;;
323;SDS011;149;51.094;17.002;2023-03-01T03:26:32;87.47;;;51.67;;
323;SDS011;149;51.094;17.002;2023-03-01T03:28:59;90.40;;;52.00;;
323;SDS011;149;51.094;17.002;2023-03-01T03:31:27;88.80;;;47.60;;
323;SDS011;149;51.094;17.002;2023-03-01T03:33:54;93.07;;;50.78;;
323;SDS011;149;51.094;17.002;2023-03-01T03:36:22;87.63;;;49.90;;
323;SDS011;149;51.094;17.002;2023-03-01T03:38:50;81.03;;;50.05;;
323;SDS011;149;51.094;17.002;2023-03-01T03:41:18;94.35;;;52.38;;
323;SDS011;149;51.094;17.002;2023-03-01T03:43:45;78.18;;;48.65;;
323;SDS011;149;51.094;17.002;2023-03-01T03:46:12;91.13;;;50.85;;
323;SDS011;149;51.094;17.002;2023-03-01T03:48:40;110.25;;;51.55;;
323;SDS011;149;51.094;17.002;2023-03-01T03:51:11;94.75;;;51.78;;
323;SDS011;149;51.094;17.002;2023-03-01T03:53:42;95.57;;;54.17;;
323;SDS011;149;51.094;17.002;2023-03-01T03:56:10;81.07;;;50.83;;
323;SDS011;149;51.094;17.002;2023-03-01T03:58:37;93.90;;;51.85;;
323;SDS011;149;51.094;17.002;2023-03-01T04:01:04;93.57;;;51.10;;
323;SDS011;149;51.094;17.002;2023-03-01T04:03:32;89.65;;;50.63;;
323;SDS011;149;51.094;17.002;2023-03-01T04:06:01;85.55;;;52.25;;
323;SDS011;149;51.094;17.002;2023-03-01T04:08:29;94.65;;;51.72;;
323;SDS011;149;51.094;17.002;2023-03-01T04:10:57;79.50;;;54.92;;
323;SDS011;149;51.094;17.002;2023-03-01T04:13:46;84.43;;;53.15;;
323;SDS011;149;51.094;17.002;2023-03-01T04:16:13;93.57;;;50.47;;
323;SDS011;149;51.094;17.002;2023-03-01T04:18:41;93.93;;;52.85;;
323;SDS011;149;51.094;17.002;2023-03-01T04:21:08;105.20;;;57.00;;
323;SDS011;149;51.094;17.002;2023-03-01T04:23:37;96.45;;;52.72;;
323;SDS011;149;51.094;17.002;2023-03-01T04:26:04;91.22;;;53.58;;
323;SDS011;149;51.094;17.002;2023-03-01T04:28:32;99.40;;;55.08;;
323;SDS011;149;51.094;17.002;2023-03-01T04:31:05;93.25;;;53.90;;
323;SDS011;149;51.094;17.002;2023-03-01T04:33:45;102.05;;;56.15;;
323;SDS011;149;51.094;17.002;2023-03-01T04:36:14;94.03;;;51.70;;
323;SDS011;149;51.094;17.002;2023-03-01T04:38:43;88.70;;;49.60;;
323;SDS011;149;51.094;17.002;2023-03-01T04:41:14;103.70;;;56.40;;
323;SDS011;149;51.094;17.002;2023-03-01T04:43:43;92.45;;;55.42;;
323;SDS011;149;51.094;17.002;2023-03-01T04:46:14;95.68;;;54.60;;
323;SDS011;149;51.094;17.002;2023-03-01T04:48:43;89.70;;;49.22;;
323;SDS011;149;51.094;17.002;2023-03-01T04:51:11;96.60;;;54.45;;
323;SDS011;149;51.094;17.002;2023-03-01T04:53:40;96.22;;;55.05;;
323;SDS011;149;51.094;17.002;2023-03-01T04:56:08;87.05;;;52.08;;
323;SDS011;149;51.094;17.002;2023-03-01T04:58:35;102.20;;;59.90;;
323;SDS011;149;51.094;17.002;2023-03-01T05:01:07;93.35;;;55.05;;
323;SDS011;149;51.094;17.002;2023-03-01T05:03:51;101.93;;;54.17;;
323;SDS011;149;51.094;17.002;2023-03-01T05:06:19;94.82;;;53.03;;
323;SDS011;149;51.094;17.002;2023-03-01T05:08:46;98.40;;;56.97;;
323;SDS011;149;51.094;17.002;2023-03-01T05:11:14;93.68;;;56.17;;
323;SDS011;149;51.094;17.002;2023-03-01T05:13:41;97.82;;;57.03;;
323;SDS011;149;51.094;17.002;2023-03-01T05:16:08;100.90;;;58.70;;
323;SDS011;149;51.094;17.002;2023-03-01T05:18:39;90.15;;;55.03;;
323;SDS011;149;51.094;17.002;2023-03-01T05:21:07;93.57;;;55.40;;
323;SDS011;149;51.094;17.002;2023-03-01T05:23:37;89.57;;;52.42;;
323;SDS011;149;51.094;17.002;2023-03-01T05:26:05;88.60;;;53.03;;
323;SDS011;149;51.094;17.002;2023-03-01T05:28:47;95.10;;;55.95;;
323;SDS011;149;51.094;17.002;2023-03-01T05:31:14;95.70;;;56.55;;
323;SDS011;149;51.094;17.002;2023-03-01T05:33:41;103.25;;;55.40;;
323;SDS011;149;51.094;17.002;2023-03-01T05:36:10;91.85;;;54.78;;
323;SDS011;149;51.094;17.002;2023-03-01T05:38:37;88.70;;;53.00;;
323;SDS011;149;51.094;17.002;2023-03-01T05:41:04;103.38;;;57.70;;
323;SDS011;149;51.094;17.002;2023-03-01T05:43:31;89.28;;;52.20;;
323;SDS011;149;51.094;17.002;2023-03-01T05:46:00;96.28;;;56.92;;
323;SDS011;149;51.094;17.002;2023-03-01T05:48:27;104.03;;;55.92;;
323;SDS011;149;51.094;17.002;2023-03-01T05:50:54;100.72;;;53.95;;
323;SDS011;149;51.094;17.002;2023-03-01T05:53:21;104.55;;;58.20;;
323;SDS011;149;51.094;17.002;2023-03-01T05:55:48;96.63;;;55.67;;
323;SDS011;149;51.094;17.002;2023-03-01T05:58:16;106.65;;;56.50;;
323;SDS011;149;51.094;17.002;2023-03-01T06:00:45;104.07;;;56.70;;
323;SDS011;149;51.094;17.002;2023-03-01T06:03:15;98.80;;;56.45;;
323;SDS011;149;51.094;17.002;2023-03-01T06:05:43;102.20;;;57.95;;
323;SDS011;149;51.094;17.002;2023-03-01T06:08:10;99.55;;;56.65;;
323;SDS011;149;51.094;17.002;2023-03-01T06:10:38;105.82;;;59.90;;
323;SDS011;149;51.094;17.002;2023-03-01T06:13:05;113.57;;;60.95;;
323;SDS011;149;51.094;17.002;2023-03-01T06:15:32;99.20;;;57.17;;
323;SDS011;149;51.094;17.002;2023-03-01T06:17:59;97.63;;;56.47;;
323;SDS011;149;51.094;17.002;2023-03-01T06:20:27;89.20;;;55.53;;
323;SDS011;149;51.094;17.002;2023-03-01T06:22:55;98.47;;;59.55;;
323;SDS011;149;51.094;17.002;2023-03-01T06:25:23;106.72;;;59.45;;
323;SDS011;149;51.094;17.002;2023-03-01T06:27:52;108.35;;;59.65;;
323;SDS011;149;51.094;17.002;2023-03-01T06:30:20;117.75;;;67.25;;
323;SDS011;149;51.094;17.002;2023-03-01T06:32:48;98.88;;;62.22;;
323;SDS011;149;51.094;17.002;2023-03-01T06:35:15;65.55;;;42.83;;
323;SDS011;149;51.094;17.002;2023-03-01T06:37:45;69.70;;;43.60;;
323;SDS011;149;51.094;17.002;2023-03-01T06:40:13;59.72;;;37.22;;
323;SDS011;149;51.094;17.002;2023-03-01T06:42:42;64.55;;;40.90;;
323;SDS011;149;51.094;17.002;2023-03-01T06:45:14;72.68;;;43.45;;
323;SDS011;149;51.094;17.002;2023-03-01T06:47:41;65.55;;;40.90;;
323;SDS011;149;51.094;17.002;2023-03-01T06:50:09;65.80;;;41.35;;
323;SDS011;149;51.094;17.002;2023-03-01T06:52:37;77.32;;;46.30;;
323;SDS011;149;51.094;17.002;2023-03-01T06:55:04;79.32;;;40.97;;
323;SDS011;149;51.094;17.002;2023-03-01T06:57:32;67.40;;;41.17;;
323;SDS011;149;51.094;17.002;2023-03-01T06:59:59;69.30;;;40.17;;
323;SDS011;149;51.094;17.002;2023-03-01T07:02:26;55.75;;;36.75;;
323;SDS011;149;51.094;17.002;2023-03-01T07:04:55;53.17;;;35.50;;
323;SDS011;149;51.094;17.002;2023-03-01T07:07:21;58.10;;;38.55;;
323;SDS011;149;51.094;17.002;2023-03-01T07:09:49;67.72;;;39.55;;
323;SDS011;149;51.094;17.002;2023-03-01T07:12:16;66.30;;;40.22;;
323;SDS011;149;51.094;17.002;2023-03-01T07:14:43;57.20;;;38.95;;
323;SDS011;149;51.094;17.002;2023-03-01T07:17:11;56.55;;;35.78;;
323;SDS011;149;51.094;17.002;2023-03-01T07:19:38;51.83;;;30.77;;
323;SDS011;149;51.094;17.002;2023-03-01T07:22:05;52.17;;;32.53;;
323;SDS011;149;51.094;17.002;2023-03-01T07:24:34;45.97;;;29.58;;
323;SDS011;149;51.094;17.002;2023-03-01T07:27:01;47.72;;;31.27;;
323;SDS011;149;51.094;17.002;2023-03-01T07:29:28;52.10;;;31.13;;
323;SDS011;149;51.094;17.002;2023-03-01T07:31:55;54.80;;;30.02;;
323;SDS011;149;51.094;17.002;2023-03-01T07:34:22;48.40;;;32.08;;
323;SDS011;149;51.094;17.002;2023-03-01T07:36:49;48.70;;;30.88;;
323;SDS011;149;51.094;17.002;2023-03-01T07:39:16;46.70;;;29.27;;
323;SDS011;149;51.094;17.002;2023-03-01T07:41:44;45.83;;;30.20;;
323;SDS011;149;51.094;17.002;2023-03-01T07:44:11;50.78;;;30.40;;
323;SDS011;149;51.094;17.002;2023-03-01T07:46:39;44.28;;;29.92;;
323;SDS011;149;51.094;17.002;2023-03-01T07:49:05;47.33;;;28.02;;
323;SDS011;149;51.094;17.002;2023-03-01T07:51:32;46.60;;;28.77;;
323;SDS011;149;51.094;17.002;2023-03-01T07:53:59;52.38;;;31.20;;
323;SDS011;149;51.094;17.002;2023-03-01T07:56:26;49.08;;;30.85;;
323;SDS011;149;51.094;17.002;2023-03-01T07:58:53;41.42;;;30.00;;
323;SDS011;149;51.094;17.002;2023-03-01T08:01:20;46.65;;;29.42;;
323;SDS011;149;51.094;17.002;2023-03-01T08:03:50;36.77;;;26.53;;
323;SDS011;149;51.094;17.002;2023-03-01T08:06:17;33.67;;;24.33;;
323;SDS011;149;51.094;17.002;2023-03-01T08:08:45;34.57;;;24.67;;
323;SDS011;149;51.094;17.002;2023-03-01T08:11:12;51.90;;;31.30;;
323;SDS011;149;51.094;17.002;2023-03-01T08:13:41;38.93;;;27.97;;
323;SDS011;149;51.094;17.002;2023-03-01T08:16:12;42.00;;;28.00;;
323;SDS011;149;51.094;17.002;2023-03-01T08:18:43;57.57;;;32.83;;
323;SDS011;149;51.094;17.002;2023-03-01T08:21:11;38.43;;;26.03;;
323;SDS011;149;51.094;17.002;2023-03-01T08:23:42;35.97;;;22.80;;
323;SDS011;149;51.094;17.002;2023-03-01T08:26:12;29.73;;;22.73;;
323;SDS011;149;51.094;17.002;2023-03-01T08:28:44;33.00;;;23.43;;
323;SDS011;149;51.094;17.002;2023-03-01T08:31:25;34.67;;;22.97;;
323;SDS011;149;51.094;17.002;2023-03-01T08:33:55;28.73;;;21.90;;
323;SDS011;149;51.094;17.002;2023-03-01T08:36:25;34.83;;;24.90;;
323;SDS011;149;51.094;17.002;2023-03-01T08:38:53;27.93;;;20.03;;
323;SDS011;149;51.094;17.002;2023-03-01T08:41:20;26.03;;;20.50;;
323;SDS011;149;51.094;17.002;2023-03-01T08:43:47;23.43;;;18.47;;
323;SDS011;149;51.094;17.002;2023-03-01T08:46:15;27.93;;;17.47;;
323;SDS011;149;51.094;17.002;2023-03-01T08:48:42;29.67;;;20.10;;
323;SDS011;149;51.094;17.002;2023-03-01T08:51:10;36.10;;;20.03;;
323;SDS011;149;51.094;17.002;2023-03-01T08:53:40;27.33;;;20.08;;
323;SDS011;149;51.094;17.002;2023-03-01T08:56:07;24.50;;;18.50;;
323;SDS011;149;51.094;17.002;2023-03-01T08:58:36;24.15;;;17.45;;
323;SDS011;149;51.094;17.002;2023-03-01T09:01:07;24.33;;;16.73;;
323;SDS011;149;51.094;17.002;2023-03-01T09:03:34;20.42;;;15.50;;
323;SDS011;149;51.094;17.002;2023-03-01T09:06:02;20.13;;;15.00;;
323;SDS011;149;51.094;17.002;2023-03-01T09:08:30;23.52;;;15.90;;
323;SDS011;149;51.094;17.002;2023-03-01T09:11:01;22.02;;;16.23;;
323;SDS011;149;51.094;17.002;2023-03-01T09:13:29;25.38;;;18.42;;
323;SDS011;149;51.094;17.002;2023-03-01T09:15:59;26.58;;;18.00;;
323;SDS011;149;51.094;17.002;2023-03-01T09:18:28;26.63;;;20.52;;
323;SDS011;149;51.094;17.002;2023-03-01T09:21:00;30.15;;;20.27;;
323;SDS011;149;51.094;17.002;2023-03-01T09:23:39;23.75;;;18.95;;
323;SDS011;149;51.094;17.002;2023-03-01T09:26:11;27.73;;;19.35;;
323;SDS011;149;51.094;17.002;2023-03-01T09:28:49;25.70;;;18.27;;
323;SDS011;149;51.094;17.002;2023-03-01T09:31:18;23.75;;;19.50;;
323;SDS011;149;51.094;17.002;2023-03-01T09:33:47;26.67;;;20.10;;
323;SDS011;149;51.094;17.002;2023-03-01T09:36:17;25.30;;;18.10;;
323;SDS011;149;51.094;17.002;2023-03-01T09:38:45;26.08;;;19.00;;
323;SDS011;149;51.094;17.002;2023-03-01T09:46:44;32.47;;;21.30;;
323;SDS011;149;51.094;17.002;2023-03-01T09:49:17;28.92;;;18.90;;
323;SDS011;149;51.094;17.002;2023-03-01T09:54:25;29.30;;;21.60;;
323;SDS011;149;51.094;17.002;2023-03-01T09:57:06;33.08;;;22.35;;
323;SDS011;149;51.094;17.002;2023-03-01T10:10:38;31.70;;;18.45;;
323;SDS011;149;51.094;17.002;2023-03-01T10:15:48;33.92;;;21.20;;
323;SDS011;149;51.094;17.002;2023-03-01T10:18:22;31.92;;;19.20;;
323;SDS011;149;51.094;17.002;2023-03-01T10:20:58;29.98;;;19.38;;
323;SDS011;149;51.094;17.002;2023-03-01T10:23:31;26.55;;;17.90;;
323;SDS011;149;51.094;17.002;2023-03-01T10:31:39;35.33;;;19.83;;
323;SDS011;149;51.094;17.002;2023-03-01T10:36:47;30.73;;;18.85;;
323;SDS011;149;51.094;17.002;2023-03-01T10:39:20;29.55;;;18.95;;
323;SDS011;149;51.094;17.002;2023-03-01T10:41:52;33.08;;;20.20;;
323;SDS011;149;51.094;17.002;2023-03-01T10:44:35;34.08;;;21.98;;
323;SDS011;149;51.094;17.002;2023-03-01T10:47:14;28.90;;;19.00;;
323;SDS011;149;51.094;17.002;2023-03-01T10:50:00;35.50;;;18.83;;
323;SDS011;149;51.094;17.002;2023-03-01T10:52:31;24.88;;;17.98;;
323;SDS011;149;51.094;17.002;2023-03-01T10:55:02;28.90;;;19.15;;
323;SDS011;149;51.094;17.002;2023-03-01T10:57:39;29.45;;;20.08;;
323;SDS011;149;51.094;17.002;2023-03-01T11:02:51;33.47;;;19.73;;
323;SDS011;149;51.094;17.002;2023-03-01T11:05:29;29.33;;;18.10;;
323;SDS011;149;51.094;17.002;2023-03-01T11:07:57;31.20;;;18.42;;
323;SDS011;149;51.094;17.002;2023-03-01T11:10:27;25.63;;;14.80;;
323;SDS011;149;51.094;17.002;2023-03-01T11:13:12;27.02;;;17.58;;
323;SDS011;149;51.094;17.002;2023-03-01T11:15:43;26.08;;;16.80;;
323;SDS011;149;51.094;17.002;2023-03-01T11:18:26;24.65;;;17.60;;
323;SDS011;149;51.094;17.002;2023-03-01T11:21:11;30.48;;;18.80;;
323;SDS011;149;51.094;17.002;2023-03-01T11:23:39;24.13;;;15.40;;
323;SDS011;149;51.094;17.002;2023-03-01T11:26:07;23.63;;;15.50;;
323;SDS011;149;51.094;17.002;2023-03-01T11:28:38;22.30;;;14.82;;
323;SDS011;149;51.094;17.002;2023-03-01T11:31:08;21.05;;;13.13;;
323;SDS011;149;51.094;17.002;2023-03-01T11:36:33;23.08;;;15.18;;
323;SDS011;149;51.094;17.002;2023-03-01T11:39:18;21.80;;;14.55;;
323;SDS011;149;51.094;17.002;2023-03-01T11:42:10;17.83;;;13.00;;
323;SDS011;149;51.094;17.002;2023-03-01T11:44:44;25.30;;;14.80;;
323;SDS011;149;51.094;17.002;2023-03-01T11:50:14;21.70;;;13.13;;
323;SDS011;149;51.094;17.002;2023-03-01T11:53:02;24.33;;;12.60;;
323;SDS011;149;51.094;17.002;2023-03-01T11:58:29;16.98;;;12.55;;
323;SDS011;149;51.094;17.002;2023-03-01T12:01:44;21.02;;;13.20;;
323;SDS011;149;51.094;17.002;2023-03-01T12:07:02;22.33;;;13.93;;
323;SDS011;149;51.094;17.002;2023-03-01T12:09:47;19.20;;;14.32;;
323;SDS011;149;51.094;17.002;2023-03-01T12:15:28;26.38;;;14.82;;
323;SDS011;149;51.094;17.002;2023-03-01T12:18:03;19.75;;;12.55;;
323;SDS011;149;51.094;17.002;2023-03-01T12:32:27;21.67;;;14.50;;
323;SDS011;149;51.094;17.002;2023-03-01T12:35:08;30.02;;;14.70;;
323;SDS011;149;51.094;17.002;2023-03-01T12:45:44;19.52;;;10.98;;
323;SDS011;149;51.094;17.002;2023-03-01T12:50:52;15.88;;;12.45;;
323;SDS011;149;51.094;17.002;2023-03-01T12:53:25;24.60;;;14.40;;
323;SDS011;149;51.094;17.002;2023-03-01T12:55:54;16.38;;;13.90;;
323;SDS011;149;51.094;17.002;2023-03-01T12:58:37;19.15;;;12.85;;
323;SDS011;149;51.094;17.002;2023-03-01T13:04:02;27.50;;;15.15;;
323;SDS011;149;51.094;17.002;2023-03-01T13:12:43;22.90;;;13.95;;
323;SDS011;149;51.094;17.002;2023-03-01T13:17:50;16.52;;;11.40;;
323;SDS011;149;51.094;17.002;2023-03-01T13:20:27;17.35;;;12.57;;
323;SDS011;149;51.094;17.002;2023-03-01T13:31:04;12.73;;;7.50;;
323;SDS011;149;51.094;17.002;2023-03-01T13:33:40;12.18;;;7.35;;
323;SDS011;149;51.094;17.002;2023-03-01T13:38:57;7.88;;;7.07;;
323;SDS011;149;51.094;17.002;2023-03-01T13:44:24;7.55;;;4.72;;
323;SDS011;149;51.094;17.002;2023-03-01T13:49:43;9.63;;;7.07;;
323;SDS011;149;51.094;17.002;2023-03-01T13:57:51;9.70;;;7.05;;
323;SDS011;149;51.094;17.002;2023-03-01T14:00:38;9.98;;;8.18;;
323;SDS011;149;51.094;17.002;2023-03-01T14:03:10;13.68;;;8.65;;
323;SDS011;149;51.094;17.002;2023-03-01T14:05:40;15.05;;;9.27;;
323;SDS011;149;51.094;17.002;2023-03-01T14:08:22;15.70;;;9.27;;
323;SDS011;149;51.094;17.002;2023-03-01T14:16:20;11.05;;;7.65;;
323;SDS011;149;51.094;17.002;2023-03-01T14:19:27;11.52;;;7.63;;
323;SDS011;149;51.094;17.002;2023-03-01T14:25:00;12.48;;;7.93;;
323;SDS011;149;51.094;17.002;2023-03-01T14:27:37;10.93;;;7.15;;
323;SDS011;149;51.094;17.002;2023-03-01T14:32:55;8.55;;;5.78;;
323;SDS011;149;51.094;17.002;2023-03-01T14:35:25;11.27;;;6.50;;
323;SDS011;149;51.094;17.002;2023-03-01T14:38:00;9.55;;;7.22;;
323;SDS011;149;51.094;17.002;2023-03-01T14:40:32;11.25;;;7.97;;
323;SDS011;149;51.094;17.002;2023-03-01T14:43:02;8.45;;;6.00;;
323;SDS011;149;51.094;17.002;2023-03-01T14:45:36;11.48;;;7.47;;
323;SDS011;149;51.094;17.002;2023-03-01T14:48:04;9.15;;;8.05;;
323;SDS011;149;51.094;17.002;2023-03-01T14:50:33;13.82;;;7.30;;
323;SDS011;149;51.094;17.002;2023-03-01T14:53:06;9.20;;;7.80;;
323;SDS011;149;51.094;17.002;2023-03-01T14:55:42;13.05;;;8.70;;
323;SDS011;149;51.094;17.002;2023-03-01T14:58:13;19.90;;;10.35;;
323;SDS011;149;51.094;17.002;2023-03-01T15:00:49;13.90;;;8.85;;
323;SDS011;149;51.094;17.002;2023-03-01T15:03:34;12.90;;;9.15;;
323;SDS011;149;51.094;17.002;2023-03-01T15:06:07;10.38;;;7.68;;
323;SDS011;149;51.094;17.002;2023-03-01T15:08:35;15.80;;;8.95;;
323;SDS011;149;51.094;17.002;2023-03-01T15:11:04;13.57;;;9.82;;
323;SDS011;149;51.094;17.002;2023-03-01T15:13:34;11.63;;;8.00;;
323;SDS011;149;51.094;17.002;2023-03-01T15:16:06;15.30;;;9.57;;
323;SDS011;149;51.094;17.002;2023-03-01T15:18:43;12.27;;;8.60;;
323;SDS011;149;51.094;17.002;2023-03-01T15:21:19;10.60;;;8.00;;
323;SDS011;149;51.094;17.002;2023-03-01T15:23:54;14.85;;;10.50;;
323;SDS011;149;51.094;17.002;2023-03-01T15:26:25;13.18;;;9.02;;
323;SDS011;149;51.094;17.002;2023-03-01T15:28:58;14.93;;;10.73;;
323;SDS011;149;51.094;17.002;2023-03-01T15:34:08;12.38;;;8.80;;
323;SDS011;149;51.094;17.002;2023-03-01T15:36:50;14.80;;;9.60;;
323;SDS011;149;51.094;17.002;2023-03-01T15:41:53;12.73;;;9.35;;
323;SDS011;149;51.094;17.002;2023-03-01T15:44:28;13.82;;;9.63;;
323;SDS011;149;51.094;17.002;2023-03-01T15:47:21;11.27;;;8.20;;
323;SDS011;149;51.094;17.002;2023-03-01T15:49:51;13.80;;;9.85;;
323;SDS011;149;51.094;17.002;2023-03-01T15:55:03;15.65;;;9.55;;
323;SDS011;149;51.094;17.002;2023-03-01T15:57:41;17.13;;;9.85;;
323;SDS011;149;51.094;17.002;2023-03-01T16:00:09;12.75;;;8.48;;
323;SDS011;149;51.094;17.002;2023-03-01T16:02:40;13.27;;;10.27;;
323;SDS011;149;51.094;17.002;2023-03-01T16:05:12;16.75;;;10.77;;
323;SDS011;149;51.094;17.002;2023-03-01T16:07:47;14.25;;;10.05;;
323;SDS011;149;51.094;17.002;2023-03-01T16:10:16;14.15;;;9.40;;
323;SDS011;149;51.094;17.002;2023-03-01T16:12:44;14.93;;;9.32;;
323;SDS011;149;51.094;17.002;2023-03-01T16:15:18;16.63;;;10.40;;
323;SDS011;149;51.094;17.002;2023-03-01T16:17:50;15.13;;;9.88;;
323;SDS011;149;51.094;17.002;2023-03-01T16:20:18;14.32;;;9.52;;
323;SDS011;149;51.094;17.002;2023-03-01T16:22:53;17.88;;;9.60;;
323;SDS011;149;51.094;17.002;2023-03-01T16:25:21;12.38;;;9.73;;
323;SDS011;149;51.094;17.002;2023-03-01T16:27:49;15.50;;;10.57;;
323;SDS011;149;51.094;17.002;2023-03-01T16:30:18;16.35;;;10.52;;
323;SDS011;149;51.094;17.002;2023-03-01T16:32:47;20.67;;;12.70;;
323;SDS011;149;51.094;17.002;2023-03-01T16:35:17;16.90;;;13.07;;
323;SDS011;149;51.094;17.002;2023-03-01T16:37:48;24.75;;;12.63;;
323;SDS011;149;51.094;17.002;2023-03-01T16:42:53;20.00;;;12.48;;
323;SDS011;149;51.094;17.002;2023-03-01T16:45:21;14.85;;;12.40;;
323;SDS011;149;51.094;17.002;2023-03-01T16:47:50;20.70;;;13.50;;
323;SDS011;149;51.094;17.002;2023-03-01T16:50:21;17.48;;;13.52;;
323;SDS011;149;51.094;17.002;2023-03-01T16:52:48;21.20;;;14.23;;
323;SDS011;149;51.094;17.002;2023-03-01T16:55:15;21.65;;;15.50;;
323;SDS011;149;51.094;17.002;2023-03-01T16:57:42;23.38;;;12.65;;
323;SDS011;149;51.094;17.002;2023-03-01T17:00:10;21.42;;;13.32;;
323;SDS011;149;51.094;17.002;2023-03-01T17:02:39;20.05;;;13.18;;
323;SDS011;149;51.094;17.002;2023-03-01T17:05:08;28.67;;;15.40;;
323;SDS011;149;51.094;17.002;2023-03-01T17:07:38;28.77;;;17.75;;
323;SDS011;149;51.094;17.002;2023-03-01T17:10:09;42.35;;;23.60;;
323;SDS011;149;51.094;17.002;2023-03-01T17:12:37;41.17;;;23.15;;
323;SDS011;149;51.094;17.002;2023-03-01T17:15:05;44.75;;;24.88;;
323;SDS011;149;51.094;17.002;2023-03-01T17:17:33;41.22;;;24.77;;
323;SDS011;149;51.094;17.002;2023-03-01T17:20:05;55.17;;;25.90;;
323;SDS011;149;51.094;17.002;2023-03-01T17:22:32;42.00;;;24.20;;
323;SDS011;149;51.094;17.002;2023-03-01T17:24:59;34.03;;;23.98;;
323;SDS011;149;51.094;17.002;2023-03-01T17:27:26;41.25;;;23.65;;
323;SDS011;149;51.094;17.002;2023-03-01T17:29:55;39.00;;;23.73;;
323;SDS011;149;51.094;17.002;2023-03-01T17:32:23;42.42;;;23.90;;
323;SDS011;149;51.094;17.002;2023-03-01T17:34:50;38.92;;;23.63;;
323;SDS011;149;51.094;17.002;2023-03-01T17:37:18;35.30;;;21.00;;